Time;durP1;ratioP1;P1;durP2;ratioP2;P2;SDS_P1;SDS_P2;PMS_P1;PMS_P2;Temp;Humidity;BMP_temperature;BMP_pressure;BME280_temperature;BME280_humidity;BME280_pressure;Samples;Min_cycle;Max_cycle;Signal;HPM_P1;HPM_P2
2022/04/12 00:01:56;;;;;;;3.70;1.10;;;;;;;9.14;54.32;98294.22;5070789;28;20220;-57
2022/04/12 00:04:23;;;;;;;2.00;1.13;;;;;;;9.13;54.91;98293.41;5071063;28;20186;-57
2022/04/12 00:06:50;;;;;;;4.33;1.20;;;;;;;9.06;54.77;98299.38;5071202;28;20182;-57
2022/04/12 00:09:16;;;;;;;2.73;1.07;;;;;;;9.01;54.71;98292.00;5073342;28;20224;-57
2022/04/12 00:11:43;;;;;;;3.70;1.10;;;;;;;9.01;54.58;98287.63;5080987;28;20189;-57
2022/04/12 00:14:10;;;;;;;1.50;1.00;;;;;;;9.12;53.85;98283.94;5086979;28;20197;-57
2022/04/12 00:16:37;;;;;;;2.43;1.30;;;;;;;9.25;50.99;98287.97;5086095;28;20219;-57
2022/04/12 00:19:04;;;;;;;6.47;1.47;;;;;;;9.37;51.50;98291.16;5087690;28;20207;-57
2022/04/12 00:21:34;;;;;;;2.37;1.20;;;;;;;9.49;50.59;98292.56;5090124;28;20683;-57
2022/04/12 00:24:02;;;;;;;2.20;1.07;;;;;;;9.43;53.04;98282.75;5089494;28;20174;-57
2022/04/12 00:26:29;;;;;;;2.40;1.10;;;;;;;9.31;53.79;98282.16;5089561;28;20188;-58
2022/04/12 00:28:56;;;;;;;1.80;1.20;;;;;;;9.23;54.25;98274.28;5084472;28;20212;-57
2022/04/12 00:31:23;;;;;;;2.17;1.07;;;;;;;9.25;53.38;98282.75;5084752;28;20228;-57
2022/04/12 00:33:50;;;;;;;1.93;1.00;;;;;;;9.26;52.82;98285.22;5082817;28;20189;-57
2022/04/12 00:36:18;;;;;;;1.73;1.07;;;;;;;9.16;54.58;98279.28;5085352;28;20188;-56
2022/04/12 00:38:44;;;;;;;3.80;1.10;;;;;;;9.06;54.90;98278.53;5090361;28;20210;-57
2022/04/12 00:41:11;;;;;;;1.87;1.00;;;;;;;9.05;53.46;98279.50;5087023;28;20192;-57
2022/04/12 00:43:39;;;;;;;3.50;1.07;;;;;;;8.98;54.10;98277.50;5087360;28;20263;-57
2022/04/12 00:46:06;;;;;;;1.80;1.10;;;;;;;8.93;54.54;98286.72;5090075;28;20188;-57
2022/04/12 00:48:34;;;;;;;2.73;1.00;;;;;;;8.84;56.14;98291.88;5087910;28;20204;-57
2022/04/12 00:51:01;;;;;;;2.83;1.00;;;;;;;8.78;56.65;98291.63;5089681;28;20188;-57
2022/04/12 00:53:31;;;;;;;4.03;1.20;;;;;;;8.65;58.63;98294.59;5090758;28;20192;-57
2022/04/12 00:55:59;;;;;;;1.60;1.00;;;;;;;8.48;58.30;98293.56;5089931;28;20836;-57
2022/04/12 00:58:26;;;;;;;1.80;1.10;;;;;;;8.37;58.41;98299.78;5090599;28;20210;-57
2022/04/12 01:00:53;;;;;;;2.30;1.57;;;;;;;8.25;58.97;98293.97;5086988;28;20231;-57
2022/04/12 01:03:20;;;;;;;2.03;0.90;;;;;;;8.16;59.96;98293.03;5090395;28;20295;-57
2022/04/12 01:05:48;;;;;;;2.17;0.90;;;;;;;7.98;60.46;98293.75;5089738;28;20185;-57
2022/04/12 01:08:15;;;;;;;1.77;1.30;;;;;;;7.83;60.22;98284.81;5087201;28;20256;-57
2022/04/12 01:10:45;;;;;;;5.57;0.97;;;;;;;7.76;60.96;98286.34;5082901;28;20196;-57
2022/04/12 01:13:12;;;;;;;1.57;0.90;;;;;;;7.66;62.20;98279.38;5084185;28;20195;-57
2022/04/12 01:15:42;;;;;;;1.83;0.90;;;;;;;7.50;62.41;98273.94;5078397;28;20188;-57
2022/04/12 01:18:09;;;;;;;2.23;1.00;;;;;;;7.42;61.70;98269.44;5070292;28;20702;-57
2022/04/12 01:20:36;;;;;;;1.27;0.90;;;;;;;7.35;62.27;98258.81;5069135;28;20188;-57
2022/04/12 01:23:08;;;;;;;4.07;1.03;;;;;;;7.26;63.87;98259.63;5070352;28;20201;-57
2022/04/12 01:25:37;;;;;;;1.37;0.83;;;;;;;7.27;64.16;98247.50;5088121;28;20205;-57
2022/04/12 01:28:04;;;;;;;2.63;1.00;;;;;;;7.18;64.69;98242.16;5090094;28;20706;-57
2022/04/12 01:30:31;;;;;;;3.53;0.80;;;;;;;7.17;65.15;98247.47;5088958;28;20649;-57
2022/04/12 01:32:57;;;;;;;4.10;1.00;;;;;;;7.11;65.98;98245.44;5078130;28;20185;-57
2022/04/12 01:35:24;;;;;;;1.33;0.73;;;;;;;6.98;64.18;98238.75;5081342;28;20238;-58
2022/04/12 01:37:51;;;;;;;1.43;0.90;;;;;;;6.91;62.91;98241.09;5074244;28;20475;-58
2022/04/12 01:40:18;;;;;;;1.40;0.87;;;;;;;6.93;63.03;98240.94;5073516;28;20194;-57
2022/04/12 01:42:46;;;;;;;1.30;0.60;;;;;;;7.09;64.78;98240.41;5072629;28;20575;-58
2022/04/12 01:45:13;;;;;;;1.40;0.80;;;;;;;7.13;66.85;98239.16;5073757;28;20189;-57
2022/04/12 01:47:40;;;;;;;1.37;0.90;;;;;;;7.07;64.07;98235.34;5081971;28;20211;-58
2022/04/12 01:50:07;;;;;;;1.00;0.80;;;;;;;7.02;61.09;98237.53;5086901;28;20236;-58
2022/04/12 01:52:35;;;;;;;0.90;0.60;;;;;;;6.97;61.33;98234.53;5085849;28;20196;-57
2022/04/12 01:55:03;;;;;;;3.63;1.10;;;;;;;6.93;61.46;98234.00;5082211;28;20192;-57
2022/04/12 01:57:30;;;;;;;1.63;0.87;;;;;;;7.00;59.93;98233.44;5081959;28;20296;-58
2022/04/12 01:59:58;;;;;;;2.03;1.10;;;;;;;7.12;64.46;98231.50;5072930;28;20227;-57
2022/04/12 02:02:25;;;;;;;1.00;0.60;;;;;;;7.11;64.08;98232.47;5073820;28;20234;-58
2022/04/12 02:04:52;;;;;;;3.07;0.90;;;;;;;7.13;61.22;98227.94;5073350;28;20670;-58
2022/04/12 02:07:19;;;;;;;1.40;0.70;;;;;;;7.13;60.44;98228.78;5073645;28;20207;-57
2022/04/12 02:09:47;;;;;;;1.50;0.70;;;;;;;7.11;62.08;98229.88;5072856;28;20262;-58
2022/04/12 02:12:13;;;;;;;1.30;0.80;;;;;;;7.12;63.00;98227.16;5073564;28;20202;-57
2022/04/12 02:14:40;;;;;;;1.67;0.63;;;;;;;7.16;60.17;98223.31;5073281;28;20363;-57
2022/04/12 02:17:08;;;;;;;4.77;0.90;;;;;;;7.49;59.83;98222.97;5073446;28;20197;-57
2022/04/12 02:19:35;;;;;;;1.90;0.90;;;;;;;7.38;58.49;98229.16;5073203;28;20234;-57
2022/04/12 02:22:02;;;;;;;1.67;0.83;;;;;;;7.43;58.54;98228.72;5073161;28;20182;-58
2022/04/12 02:24:30;;;;;;;1.40;0.90;;;;;;;7.34;58.81;98233.81;5072948;28;20202;-57
2022/04/12 02:26:57;;;;;;;4.13;1.00;;;;;;;7.35;58.94;98232.84;5073266;28;20684;-58
2022/04/12 02:29:24;;;;;;;1.67;0.70;;;;;;;7.36;59.06;98233.69;5090188;28;20208;-57
2022/04/12 02:31:51;;;;;;;1.30;0.50;;;;;;;7.35;59.70;98232.03;5092752;28;20194;-57
2022/04/12 02:34:19;;;;;;;2.63;0.70;;;;;;;7.28;61.67;98229.16;5093010;28;20268;-58
2022/04/12 02:36:47;;;;;;;2.03;0.90;;;;;;;7.13;61.17;98233.97;5093309;28;20184;-57
2022/04/12 02:39:14;;;;;;;1.33;0.70;;;;;;;6.98;62.39;98237.94;5093409;28;20207;-58
2022/04/12 02:41:40;;;;;;;2.60;0.70;;;;;;;6.84;64.96;98234.81;5092603;28;20680;-57
2022/04/12 02:44:07;;;;;;;2.27;0.80;;;;;;;6.71;65.35;98242.03;5092623;28;20239;-58
2022/04/12 02:46:34;;;;;;;3.73;0.80;;;;;;;6.58;65.98;98240.50;5092343;28;20185;-58
2022/04/12 02:49:01;;;;;;;2.20;1.00;;;;;;;6.52;65.70;98237.66;5093227;28;20212;-57
2022/04/12 02:51:29;;;;;;;2.33;1.13;;;;;;;6.52;67.29;98246.25;5092266;28;20189;-58
2022/04/12 02:53:55;;;;;;;1.60;1.10;;;;;;;6.46;68.15;98239.84;5092873;28;20179;-57
2022/04/12 02:56:22;;;;;;;2.30;1.60;;;;;;;6.38;68.84;98234.50;5093144;28;20232;-58
2022/04/12 02:58:49;;;;;;;4.73;1.93;;;;;;;6.39;69.38;98235.31;5092981;28;20608;-57
2022/04/12 03:01:16;;;;;;;5.63;2.57;;;;;;;6.44;70.81;98233.97;5092290;28;20650;-57
2022/04/12 03:03:43;;;;;;;4.03;2.70;;;;;;;6.36;70.88;98239.00;5092866;28;20275;-57
2022/04/12 03:06:09;;;;;;;4.53;2.80;;;;;;;6.40;74.64;98242.13;5092226;28;20184;-57
2022/04/12 03:08:37;;;;;;;4.27;2.80;;;;;;;6.32;73.88;98243.63;5092852;28;20194;-58
2022/04/12 03:11:04;;;;;;;4.63;2.40;;;;;;;6.28;73.87;98242.25;5092048;28;20191;-58
2022/04/12 03:13:31;;;;;;;4.80;2.70;;;;;;;6.20;74.47;98236.91;5092832;28;20185;-58
2022/04/12 03:15:58;;;;;;;6.83;2.83;;;;;;;6.14;75.34;98233.06;5092304;28;20262;-58
2022/04/12 03:18:25;;;;;;;6.33;3.20;;;;;;;6.10;76.69;98236.88;5092393;28;20209;-57
2022/04/12 03:20:52;;;;;;;5.43;2.83;;;;;;;6.03;76.13;98231.41;5091743;28;20187;-58
2022/04/12 03:23:19;;;;;;;6.37;3.33;;;;;;;6.04;77.87;98238.22;5092711;28;20233;-58
2022/04/12 03:25:50;;;;;;;6.17;3.57;;;;;;;5.99;76.73;98240.38;5092041;28;20187;-58
2022/04/12 03:28:17;;;;;;;5.23;3.40;;;;;;;5.98;76.72;98241.31;5092012;28;20204;-58
2022/04/12 03:30:43;;;;;;;4.93;2.97;;;;;;;5.95;78.43;98232.97;5091637;28;20218;-58
2022/04/12 03:33:10;;;;;;;6.87;2.80;;;;;;;5.91;77.97;98235.03;5092370;28;20187;-58
2022/04/12 03:35:37;;;;;;;7.60;3.47;;;;;;;5.83;78.16;98230.47;5091801;28;20751;-57
2022/04/12 03:38:04;;;;;;;3.73;2.47;;;;;;;5.74;78.58;98226.91;5092022;28;20210;-58
2022/04/12 03:40:33;;;;;;;5.53;2.20;;;;;;;5.76;79.57;98235.38;5091469;28;20186;-58
2022/04/12 03:43:02;;;;;;;5.23;2.70;;;;;;;5.67;78.82;98236.13;5091999;28;20219;-58
2022/04/12 03:45:29;;;;;;;4.20;2.40;;;;;;;5.72;79.09;98235.75;5091627;28;20186;-57
2022/04/12 03:47:56;;;;;;;4.53;2.53;;;;;;;5.65;79.23;98237.22;5091506;28;20206;-57
2022/04/12 03:50:24;;;;;;;3.97;2.40;;;;;;;5.54;78.90;98236.34;5088712;28;20196;-57
2022/04/12 03:52:51;;;;;;;5.57;2.40;;;;;;;5.54;78.94;98230.34;5085715;28;20594;-57
2022/04/12 03:55:30;;;;;;;6.77;2.30;;;;;;;5.47;79.60;98237.81;5079521;28;20200;-57
2022/04/12 03:57:57;;;;;;;4.37;2.00;;;;;;;5.43;79.44;98232.06;5069853;28;20560;-57
2022/04/12 04:00:26;;;;;;;4.20;2.10;;;;;;;5.48;78.54;98221.34;5070971;28;20748;-57
2022/04/12 04:02:53;;;;;;;3.00;1.70;;;;;;;5.43;79.09;98221.72;5071426;28;20182;-57
2022/04/12 04:05:20;;;;;;;5.77;1.90;;;;;;;5.48;78.32;98218.75;5071107;28;20184;-57
2022/04/12 04:07:47;;;;;;;5.03;1.50;;;;;;;5.43;77.23;98226.88;5071335;28;20212;-58
2022/04/12 04:10:14;;;;;;;5.43;1.63;;;;;;;5.47;78.96;98214.53;5070567;28;20183;-57
2022/04/12 04:12:42;;;;;;;2.30;1.60;;;;;;;5.38;78.65;98220.47;5071253;28;20192;-57
2022/04/12 04:15:12;;;;;;;2.30;1.70;;;;;;;5.36;78.84;98215.41;5070866;28;20180;-57
2022/04/12 04:17:41;;;;;;;4.70;1.70;;;;;;;5.39;78.88;98219.50;5071202;28;20688;-57
2022/04/12 04:20:10;;;;;;;3.43;1.60;;;;;;;5.33;77.93;98226.00;5070369;28;20191;-57
2022/04/12 04:22:37;;;;;;;2.73;1.50;;;;;;;5.32;77.99;98225.19;5073627;28;20191;-57
2022/04/12 04:25:04;;;;;;;3.60;1.60;;;;;;;5.35;77.41;98229.28;5077840;28;20219;-57
2022/04/12 04:27:31;;;;;;;2.17;1.60;;;;;;;5.38;77.50;98233.41;5080212;28;20207;-57
2022/04/12 04:29:58;;;;;;;5.03;1.73;;;;;;;5.32;76.27;98229.53;5070156;28;20209;-57
2022/04/12 04:32:25;;;;;;;2.90;1.50;;;;;;;5.30;76.65;98234.06;5070840;28;20184;-57
2022/04/12 04:34:53;;;;;;;2.53;1.83;;;;;;;5.30;77.48;98240.03;5070536;28;20188;-57
2022/04/12 04:37:20;;;;;;;2.07;1.53;;;;;;;5.31;77.06;98243.44;5071265;28;20261;-57
2022/04/12 04:39:46;;;;;;;2.47;1.50;;;;;;;5.42;76.82;98240.78;5070023;28;20196;-57
2022/04/12 04:42:14;;;;;;;4.70;1.70;;;;;;;5.41;78.27;98238.31;5087867;28;20199;-57
2022/04/12 04:44:40;;;;;;;3.30;1.70;;;;;;;5.36;78.58;98238.69;5090549;28;20230;-57
2022/04/12 04:47:07;;;;;;;3.57;2.03;;;;;;;5.41;78.85;98238.31;5091335;28;20194;-57
2022/04/12 04:49:34;;;;;;;3.87;2.00;;;;;;;5.36;79.66;98235.31;5090518;28;20204;-58
2022/04/12 04:52:02;;;;;;;5.13;1.93;;;;;;;5.40;78.13;98234.09;5090567;28;20218;-57
2022/04/12 04:54:29;;;;;;;2.37;1.70;;;;;;;5.38;77.68;98229.03;5090771;28;20192;-57
2022/04/12 04:56:56;;;;;;;2.07;1.30;;;;;;;5.43;79.32;98226.88;5090819;28;20672;-57
2022/04/12 04:59:23;;;;;;;3.57;1.70;;;;;;;5.44;78.17;98233.69;5090836;28;20211;-58
2022/04/12 05:01:49;;;;;;;2.47;2.03;;;;;;;5.56;79.29;98231.03;5089954;28;20617;-57
2022/04/12 05:04:16;;;;;;;2.30;1.30;;;;;;;5.61;78.48;98226.28;5090204;28;20205;-58
2022/04/12 05:06:43;;;;;;;4.63;1.07;;;;;;;5.60;78.69;98224.66;5090494;28;20658;-57
2022/04/12 05:09:11;;;;;;;2.57;1.63;;;;;;;5.65;78.65;98230.28;5090217;28;20685;-57
2022/04/12 05:11:38;;;;;;;3.17;1.40;;;;;;;5.78;79.50;98231.81;5090020;28;20188;-57
2022/04/12 05:14:05;;;;;;;1.63;1.40;;;;;;;5.82;80.58;98228.88;5090160;28;20383;-57
2022/04/12 05:16:32;;;;;;;2.40;1.40;;;;;;;5.90;78.40;98236.78;5090625;28;20245;-57
2022/04/12 05:18:58;;;;;;;2.73;1.20;;;;;;;6.02;78.06;98239.31;5090561;28;20687;-57
2022/04/12 05:21:25;;;;;;;1.17;1.00;;;;;;;6.04;77.06;98230.47;5089320;28;20184;-58
2022/04/12 05:23:52;;;;;;;2.67;1.27;;;;;;;6.08;77.23;98238.78;5090524;28;20218;-57
2022/04/12 05:26:20;;;;;;;2.20;1.37;;;;;;;6.16;76.12;98228.56;5090376;28;20194;-58
2022/04/12 05:28:46;;;;;;;3.30;1.40;;;;;;;6.22;76.26;98229.84;5090424;28;20695;-57
2022/04/12 05:31:14;;;;;;;2.60;1.30;;;;;;;6.29;77.09;98227.50;5089804;28;20188;-57
2022/04/12 05:33:41;;;;;;;2.27;1.37;;;;;;;6.33;76.86;98228.88;5091011;28;20182;-58
2022/04/12 05:36:07;;;;;;;4.30;1.17;;;;;;;6.42;76.12;98232.44;5088256;28;20249;-58
2022/04/12 05:38:34;;;;;;;2.27;1.40;;;;;;;6.49;75.94;98230.94;5082940;28;20234;-58
2022/04/12 05:41:01;;;;;;;1.90;1.33;;;;;;;6.55;75.43;98230.41;5082294;28;20213;-58
2022/04/12 05:43:29;;;;;;;5.43;2.23;;;;;;;6.68;75.44;98240.53;5079592;28;20219;-57
2022/04/12 05:45:56;;;;;;;2.37;1.40;;;;;;;6.77;76.51;98244.09;5075923;28;20185;-58
2022/04/12 05:48:23;;;;;;;20.43;15.87;;;;;;;6.89;75.77;98244.78;5069928;28;20213;-58
2022/04/12 05:50:50;;;;;;;3.50;2.23;;;;;;;7.02;77.66;98242.72;5081903;28;20188;-58
2022/04/12 05:53:17;;;;;;;4.30;2.17;;;;;;;7.15;77.43;98244.22;5081455;28;20284;-57
2022/04/12 05:55:43;;;;;;;4.27;2.63;;;;;;;7.27;76.23;98244.91;5078847;28;20680;-57
2022/04/12 05:58:10;;;;;;;9.03;4.80;;;;;;;7.37;75.09;98249.09;5074261;28;20279;-57
2022/04/12 06:00:38;;;;;;;13.37;8.57;;;;;;;7.50;73.53;98255.78;5069265;28;20189;-57
2022/04/12 06:03:06;;;;;;;15.17;8.37;;;;;;;7.65;74.10;98256.97;5069860;28;20195;-56
2022/04/12 06:05:33;;;;;;;6.23;4.03;;;;;;;7.78;74.93;98261.84;5069626;28;20221;-56
2022/04/12 06:08:00;;;;;;;4.87;2.93;;;;;;;7.93;74.24;98266.59;5069805;28;20272;-56
2022/04/12 06:10:27;;;;;;;2.53;1.90;;;;;;;8.07;74.54;98257.47;5069375;28;20189;-56
2022/04/12 06:12:54;;;;;;;2.73;1.70;;;;;;;8.21;76.20;98257.00;5070005;28;20194;-56
2022/04/12 06:15:21;;;;;;;3.43;1.90;;;;;;;8.38;75.74;98263.22;5069535;28;20649;-56
2022/04/12 06:17:49;;;;;;;4.23;2.80;;;;;;;8.57;75.02;98264.09;5069738;28;20205;-56
2022/04/12 06:20:17;;;;;;;8.10;4.43;;;;;;;8.70;72.13;98264.53;5069215;28;20188;-56
2022/04/12 06:22:44;;;;;;;7.87;5.63;;;;;;;8.88;72.21;98266.34;5073382;28;20197;-56
2022/04/12 06:25:14;;;;;;;17.53;11.80;;;;;;;9.10;70.60;98264.25;5072916;28;20213;-56
2022/04/12 06:27:43;;;;;;;6.63;3.90;;;;;;;9.30;69.63;98255.31;5073252;28;20688;-56
2022/04/12 06:30:12;;;;;;;4.20;3.30;;;;;;;9.51;68.04;98256.75;5072402;28;20549;-57
2022/04/12 06:32:39;;;;;;;10.70;5.80;;;;;;;9.68;66.18;98259.44;5073300;28;20193;-56
2022/04/12 06:35:10;;;;;;;8.10;3.67;;;;;;;9.85;66.24;98257.75;5072902;28;20189;-56
2022/04/12 06:37:39;;;;;;;5.83;3.37;;;;;;;10.04;64.89;98262.72;5073196;28;20259;-56
2022/04/12 06:40:08;;;;;;;7.23;3.80;;;;;;;10.17;65.47;98267.50;5072401;28;20282;-56
2022/04/12 06:42:36;;;;;;;10.00;4.10;;;;;;;10.32;66.29;98274.72;5072919;28;20194;-57
2022/04/12 06:45:03;;;;;;;8.20;4.90;;;;;;;10.39;65.30;98280.13;5072591;28;20213;-56
2022/04/12 06:47:32;;;;;;;6.40;4.60;;;;;;;10.50;65.86;98281.69;5072816;28;20252;-56
2022/04/12 06:49:59;;;;;;;5.40;3.93;;;;;;;10.63;64.08;98284.63;5072044;28;20191;-56
2022/04/12 06:52:27;;;;;;;6.67;3.57;;;;;;;10.74;63.42;98284.31;5073372;28;20233;-56
2022/04/12 06:54:54;;;;;;;6.60;3.53;;;;;;;10.76;62.80;98287.59;5072395;28;20651;-56
2022/04/12 06:57:21;;;;;;;8.43;4.00;;;;;;;10.85;62.67;98290.22;5072717;28;20195;-57
2022/04/12 06:59:47;;;;;;;8.30;3.70;;;;;;;10.92;61.88;98292.03;5072065;28;20590;-57
2022/04/12 07:02:14;;;;;;;4.90;3.40;;;;;;;11.04;61.95;98296.94;5072748;28;20191;-56
2022/04/12 07:04:41;;;;;;;9.90;3.97;;;;;;;11.10;59.84;98295.47;5072279;28;20214;-57
2022/04/12 07:07:08;;;;;;;4.73;3.47;;;;;;;11.12;59.71;98296.97;5072617;28;20182;-57
2022/04/12 07:09:36;;;;;;;6.57;3.60;;;;;;;11.20;59.59;98286.47;5072010;28;20674;-56
2022/04/12 07:12:03;;;;;;;5.60;3.47;;;;;;;11.35;59.02;98294.50;5072513;28;20183;-57
2022/04/12 07:14:32;;;;;;;9.47;5.23;;;;;;;11.42;59.17;98301.69;5072086;28;20193;-57
2022/04/12 07:16:59;;;;;;;8.57;5.10;;;;;;;11.50;60.03;98299.06;5072565;28;20187;-57
2022/04/12 07:19:26;;;;;;;12.17;5.70;;;;;;;11.65;61.03;98302.66;5072412;28;20294;-56
2022/04/12 07:21:53;;;;;;;9.23;5.60;;;;;;;11.85;60.37;98306.69;5071696;28;20187;-57
2022/04/12 07:24:20;;;;;;;9.70;5.60;;;;;;;11.96;58.88;98307.16;5071722;28;20201;-56
2022/04/12 07:26:48;;;;;;;9.00;5.97;;;;;;;12.16;59.56;98304.19;5072397;28;20184;-57
2022/04/12 07:29:15;;;;;;;7.57;5.17;;;;;;;12.23;59.16;98299.91;5072354;28;20203;-56
2022/04/12 07:31:43;;;;;;;8.30;4.77;;;;;;;12.42;58.32;98304.88;5071073;28;20179;-57
2022/04/12 07:34:10;;;;;;;6.67;4.27;;;;;;;12.52;57.42;98302.88;5071653;28;20558;-57
2022/04/12 07:36:39;;;;;;;7.13;4.07;;;;;;;12.51;55.52;98299.47;5072143;28;20217;-56
2022/04/12 07:39:06;;;;;;;7.33;4.70;;;;;;;12.58;54.63;98306.63;5072038;28;20235;-57
2022/04/12 07:41:33;;;;;;;6.90;4.30;;;;;;;12.65;53.96;98295.28;5071445;28;20177;-56
2022/04/12 07:44:02;;;;;;;8.50;4.27;;;;;;;12.59;53.07;98289.94;5071180;28;20329;-57
2022/04/12 07:46:28;;;;;;;6.23;3.73;;;;;;;12.39;51.98;98278.06;5071981;28;20184;-56
2022/04/12 07:48:55;;;;;;;5.27;3.70;;;;;;;12.31;52.28;98275.47;5071388;28;20202;-56
2022/04/12 07:51:22;;;;;;;5.40;3.30;;;;;;;12.38;52.48;98265.97;5084507;28;20198;-57
2022/04/12 07:53:48;;;;;;;8.70;3.73;;;;;;;12.37;51.90;98271.38;5080169;28;20194;-57
2022/04/12 07:56:16;;;;;;;9.10;3.83;;;;;;;12.30;50.81;98268.63;5071263;28;20192;-56
2022/04/12 07:58:43;;;;;;;10.57;5.53;;;;;;;12.27;52.13;98263.72;5071454;28;20220;-56
2022/04/12 08:01:11;;;;;;;16.03;8.40;;;;;;;12.36;53.50;98264.53;5086759;28;20570;-56
2022/04/12 08:03:40;;;;;;;9.17;5.40;;;;;;;12.39;52.77;98274.66;5091849;28;20199;-56
2022/04/12 08:06:07;;;;;;;8.43;4.67;;;;;;;12.58;52.07;98270.78;5091233;28;20219;-57
2022/04/12 08:08:34;;;;;;;8.03;4.53;;;;;;;12.64;52.81;98271.91;5091653;28;20204;-56
2022/04/12 08:11:01;;;;;;;11.77;4.63;;;;;;;12.63;54.58;98267.66;5090917;28;20191;-56
2022/04/12 08:13:27;;;;;;;9.10;4.60;;;;;;;12.65;53.53;98279.56;5091642;28;20188;-56
2022/04/12 08:15:54;;;;;;;8.13;5.10;;;;;;;12.59;56.43;98277.63;5089818;28;20201;-56
2022/04/12 08:18:22;;;;;;;11.07;5.77;;;;;;;12.73;59.12;98285.75;5091346;28;20226;-56
2022/04/12 08:20:50;;;;;;;7.47;5.70;;;;;;;12.94;58.91;98283.31;5090704;28;20193;-57
2022/04/12 08:23:17;;;;;;;8.17;5.57;;;;;;;12.99;59.80;98280.16;5091521;28;20190;-57
2022/04/12 08:25:44;;;;;;;10.17;5.50;;;;;;;13.19;58.60;98287.56;5090878;28;20690;-57
2022/04/12 08:28:11;;;;;;;10.47;5.60;;;;;;;13.31;59.12;98295.81;5091225;28;20211;-57
2022/04/12 08:30:37;;;;;;;7.67;5.47;;;;;;;13.47;55.65;98300.16;5090627;28;20177;-56
2022/04/12 08:33:04;;;;;;;7.30;4.70;;;;;;;13.38;53.37;98297.56;5091396;28;20257;-56
2022/04/12 08:35:32;;;;;;;8.67;4.93;;;;;;;13.37;54.67;98298.56;5090893;28;20191;-56
2022/04/12 08:37:59;;;;;;;6.83;4.93;;;;;;;13.48;55.22;98302.56;5091131;28;20252;-56
2022/04/12 08:40:26;;;;;;;7.53;4.57;;;;;;;13.80;52.96;98299.81;5090409;28;20193;-56
2022/04/12 08:42:54;;;;;;;7.87;5.27;;;;;;;13.39;52.61;98295.75;5090753;28;20204;-57
2022/04/12 08:45:21;;;;;;;9.40;4.80;;;;;;;13.41;53.49;98299.88;5090240;28;20199;-56
2022/04/12 08:47:51;;;;;;;8.63;4.63;;;;;;;13.57;54.17;98292.84;5090915;28;20267;-56
2022/04/12 08:50:20;;;;;;;4.67;3.90;;;;;;;13.77;49.65;98289.72;5090279;28;20193;-56
2022/04/12 08:52:48;;;;;;;5.50;3.70;;;;;;;13.77;50.26;98280.00;5088786;28;20187;-56
2022/04/12 08:55:15;;;;;;;8.73;3.60;;;;;;;14.03;50.65;98281.38;5106299;28;20198;-57
2022/04/12 08:57:42;;;;;;;6.67;4.10;;;;;;;14.02;48.38;98283.19;5090923;28;20214;-56
2022/04/12 09:00:09;;;;;;;8.67;4.10;;;;;;;13.91;48.75;98278.38;5089907;28;20216;-57
2022/04/12 09:02:36;;;;;;;8.23;4.13;;;;;;;13.84;50.85;98290.59;5090915;28;20197;-56
2022/04/12 09:05:02;;;;;;;6.10;4.43;;;;;;;13.67;52.07;98280.28;5090401;28;20208;-56
2022/04/12 09:07:30;;;;;;;9.47;5.10;;;;;;;13.58;53.91;98284.78;5090806;28;20539;-56
2022/04/12 09:10:08;;;;;;;8.30;4.97;;;;;;;13.71;53.16;98285.97;5089913;28;20728;-56
2022/04/12 09:12:35;;;;;;;7.70;4.93;;;;;;;13.78;52.15;98291.34;5088303;28;20186;-57
2022/04/12 09:15:03;;;;;;;6.57;4.50;;;;;;;13.76;51.35;98301.19;5083050;28;20188;-56
2022/04/12 09:17:35;;;;;;;9.03;4.53;;;;;;;13.86;50.92;98299.09;5085501;28;20183;-56
2022/04/12 09:20:04;;;;;;;7.27;4.73;;;;;;;13.85;51.08;98300.91;5089451;28;20192;-57
2022/04/12 09:22:34;;;;;;;12.60;4.40;;;;;;;13.77;50.11;98301.00;5087761;28;20187;-56
2022/04/12 09:25:04;;;;;;;7.17;4.77;;;;;;;13.87;50.87;98293.69;5089553;28;20208;-56
2022/04/12 09:27:34;;;;;;;6.23;4.10;;;;;;;13.80;49.72;98292.78;5086277;28;20199;-56
2022/04/12 09:30:02;;;;;;;5.90;4.00;;;;;;;13.80;48.61;98290.16;5089429;28;20179;-56
2022/04/12 09:32:30;;;;;;;8.77;4.17;;;;;;;13.94;49.94;98293.75;5089715;28;20653;-57
2022/04/12 09:34:58;;;;;;;6.30;4.20;;;;;;;14.08;49.30;98301.81;5086962;28;20187;-56
2022/04/12 09:37:27;;;;;;;5.90;4.50;;;;;;;14.01;49.81;98286.81;5079945;28;20524;-57
2022/04/12 09:39:55;;;;;;;6.40;4.27;;;;;;;13.99;50.01;98285.38;5083959;28;20709;-57
2022/04/12 09:42:48;;;;;;;6.63;4.17;;;;;;;14.12;50.25;98293.41;5083719;28;20220;-57
2022/04/12 09:45:17;;;;;;;6.60;3.80;;;;;;;14.17;50.08;98291.06;5085493;28;20296;-57
2022/04/12 09:47:45;;;;;;;6.50;3.87;;;;;;;14.08;48.69;98286.91;5082659;28;20220;-54
2022/04/12 09:50:12;;;;;;;6.27;3.73;;;;;;;14.13;49.39;98281.09;5083228;28;20195;-56
2022/04/12 09:52:40;;;;;;;9.67;4.23;;;;;;;14.02;49.57;98283.19;5086646;28;20183;-57
2022/04/12 09:55:07;;;;;;;7.33;4.00;;;;;;;13.81;50.53;98280.47;5091070;28;20186;-57
2022/04/12 09:57:35;;;;;;;5.10;3.87;;;;;;;13.80;50.84;98279.66;5093855;28;20202;-57
2022/04/12 10:00:04;;;;;;;7.60;4.10;;;;;;;13.83;50.69;98271.44;5092919;28;20184;-57
2022/04/12 10:02:33;;;;;;;7.90;3.90;;;;;;;13.87;51.75;98271.88;5084451;28;20196;-57
2022/04/12 10:05:03;;;;;;;6.25;4.10;;;;;;;13.86;51.20;98252.69;5084866;28;20938;-56
2022/04/12 10:07:32;;;;;;;5.80;4.17;;;;;;;13.91;50.16;98254.78;5081811;28;20213;-57
2022/04/12 10:10:03;;;;;;;8.57;4.13;;;;;;;14.07;51.23;98248.53;5072873;28;20191;-56
2022/04/12 10:12:31;;;;;;;6.23;3.90;;;;;;;14.21;51.57;98238.19;5073654;28;20188;-57
2022/04/12 10:14:58;;;;;;;7.20;4.17;;;;;;;14.43;51.21;98236.41;5073136;28;20190;-56
2022/04/12 10:17:27;;;;;;;6.07;3.73;;;;;;;14.56;50.15;98239.19;5073474;28;20191;-57
2022/04/12 10:19:55;;;;;;;6.73;3.60;;;;;;;14.64;51.16;98238.25;5072766;28;20613;-57
2022/04/12 10:22:22;;;;;;;7.13;4.43;;;;;;;14.75;49.88;98234.38;5073584;28;20690;-57
2022/04/12 10:24:49;;;;;;;5.40;3.97;;;;;;;14.89;50.35;98222.94;5071791;28;20192;-57
2022/04/12 10:27:16;;;;;;;7.57;3.83;;;;;;;14.90;50.49;98223.78;5073403;28;20184;-57
2022/04/12 10:30:21;;;;;;;6.23;4.00;;;;;;;15.01;52.47;98222.44;5072678;28;20192;-57
2022/04/12 10:33:01;;;;;;;9.47;4.03;;;;;;;15.08;50.61;98223.31;5073388;28;20212;-57
2022/04/12 10:35:28;;;;;;;7.40;3.30;;;;;;;15.15;51.54;98224.19;5076165;28;20419;-57
2022/04/12 10:37:56;;;;;;;6.90;4.60;;;;;;;15.34;51.72;98224.53;5079647;28;20734;-57
2022/04/12 10:40:25;;;;;;;6.13;4.50;;;;;;;15.48;51.73;98222.78;5079472;28;20241;-57
2022/04/12 10:42:54;;;;;;;6.73;4.23;;;;;;;15.57;52.62;98223.47;5080264;28;20188;-57
2022/04/12 10:45:28;;;;;;;7.57;5.00;;;;;;;15.61;52.21;98227.34;5072693;28;20208;-57
2022/04/12 10:47:59;;;;;;;8.63;5.10;;;;;;;15.74;51.69;98222.16;5073068;28;20219;-57
2022/04/12 10:50:27;;;;;;;6.27;4.30;;;;;;;15.95;51.88;98217.81;5072227;28;20873;-57
2022/04/12 10:52:54;;;;;;;6.13;4.50;;;;;;;16.01;51.61;98221.50;5082032;28;20187;-57
2022/04/12 10:55:23;;;;;;;6.60;5.10;;;;;;;16.04;52.58;98215.84;5092823;28;20181;-57
2022/04/12 10:57:51;;;;;;;11.30;5.20;;;;;;;16.08;52.01;98214.44;5093142;28;20208;-57
2022/04/12 11:00:19;;;;;;;10.43;4.43;;;;;;;16.24;52.07;98200.09;5091990;28;20216;-57
2022/04/12 11:02:47;;;;;;;6.93;4.50;;;;;;;16.14;53.44;98211.00;5093044;28;20196;-57
2022/04/12 11:05:53;;;;;;;5.47;4.43;;;;;;;16.38;51.70;98200.97;5092370;28;20208;-57
2022/04/12 11:08:46;;;;;;;8.20;4.90;;;;;;;16.52;52.51;98201.78;5092144;28;20271;-57
2022/04/12 11:11:28;;;;;;;9.90;5.27;;;;;;;16.46;52.00;98206.03;5092122;28;20203;-57
2022/04/12 11:13:55;;;;;;;6.97;4.60;;;;;;;16.46;51.98;98197.31;5092817;28;20193;-57
2022/04/12 11:16:26;;;;;;;6.73;3.87;;;;;;;16.53;51.98;98204.22;5092751;28;20182;-57
2022/04/12 11:18:54;;;;;;;7.47;5.00;;;;;;;16.56;51.63;98196.91;5092574;28;20330;-57
2022/04/12 11:21:23;;;;;;;8.97;4.60;;;;;;;16.60;50.70;98204.25;5091532;28;20251;-56
2022/04/12 11:23:52;;;;;;;8.07;4.40;;;;;;;16.75;50.41;98204.06;5087205;28;20177;-56
2022/04/12 11:26:28;;;;;;;8.83;4.70;;;;;;;16.94;50.20;98194.56;5085276;28;20573;-57
2022/04/12 11:28:56;;;;;;;6.53;4.30;;;;;;;17.05;49.34;98194.97;5089309;28;20236;-57
2022/04/12 11:31:23;;;;;;;5.27;3.97;;;;;;;17.18;49.15;98199.44;5091814;28;20199;-57
2022/04/12 11:33:50;;;;;;;7.40;4.07;;;;;;;17.33;48.56;98193.94;5092603;28;20190;-57
2022/04/12 11:36:18;;;;;;;7.13;4.13;;;;;;;17.38;48.73;98194.13;5091679;28;20186;-57
2022/04/12 11:38:48;;;;;;;7.00;3.40;;;;;;;17.50;47.97;98189.84;5092097;28;20216;-57
2022/04/12 11:41:15;;;;;;;7.53;4.13;;;;;;;17.60;49.97;98189.41;5091416;28;20658;-57